• Join FlightAware (Why Join?)
  • Login
  • US Flag 
05:55PM EDT


 

Airport Tracker/Info


-or-


 

Live Flight TrackerFlight Track Log ✈ UAL6148 ✈ 21-Jul-2013 ✈ KLNK - KDEN

Flight Track Log - Related Links

Times and Time Zones

All times are in EDT time to prevent confusion due to time zone crossing. See the UAL6148 flight status page for this flight to view local times or setup timezone preferences in your user account.

Time Position Orientation Groundspeed Altitude Reporting Facility
EDT Latitude Longitude Course Direction KTS MPH feet Rate Location/Type
08:43PM 40.8117 -96.7569 257° West 161 185 1,900  Level Minneapolis Center
08:44PM 40.7878 -96.7786 214° Southwest 194 223 3,100 1,500 Climbing Minneapolis Center
08:45PM 40.7861 -96.8447 268° West 206 237 4,300 1,920 Climbing Minneapolis Center
08:46PM 40.7783 -96.9431 264° West 253 291 7,000 2,820 Climbing Minneapolis Center
08:47PM 40.8453 -97.1536 253° West  Level FlightAware Approximate
08:47PM 40.7642 -97.0606 261° West 268 308 10,200  Level Minneapolis Center
08:48PM 40.8163 -97.2797 253° West  Level FlightAware Approximate
08:48PM 40.7511 -97.1736 261° West 301 346 11,000  Level Minneapolis Center
08:49PM 40.7895 -97.4102 257° West  Level FlightAware Approximate
08:49PM 40.7372 -97.3078 262° West 354 407 11,900  Level Minneapolis Center
08:50PM 40.7178 -97.4758 261° West 372 428 13,800 1,680 Climbing Minneapolis Center
08:51PM 40.7019 -97.6122 261° West 375 432 15,400 1,500 Climbing Minneapolis Center
08:52PM 40.6867 -97.7461 261° West 371 427 17,000 1,500 Climbing Minneapolis Center
08:53PM 40.6708 -97.8797 261° West 369 425 18,600 1,500 Climbing Minneapolis Center
08:54PM 40.6517 -98.0408 261° West 370 426 20,200 1,380 Climbing Minneapolis Center
08:55PM 40.6347 -98.1786 261° West 376 433 21,500 1,200 Climbing Minneapolis Center
08:56PM 40.6183 -98.3189 261° West 383 441 22,800 1,200 Climbing Minneapolis Center
08:57PM 40.6056 -98.4594 263° West 385 443 24,000 1,200 Climbing Minneapolis Center
08:58PM 40.6194 -98.6003 277° West 386 444 25,300 1,200 Climbing Minneapolis Center
08:59PM 40.6325 -98.7403 277° West 384 442 26,600 1,200 Climbing Minneapolis Center
09:01PM 40.6450 -98.8817 277° West 386 444 27,800 1,200 Climbing Minneapolis Center
09:02PM 40.6567 -99.0219 276° West 384 442 29,100 1,320 Climbing Minneapolis Center
09:03PM 40.6703 -99.1875 276° West 379 436 30,600 1,200 Climbing Minneapolis Center
09:04PM 40.6825 -99.3261 277° West 379 436 31,700 660 Climbing Minneapolis Center
09:05PM 40.6944 -99.4669 276° West 382 440 32,000 120 Climbing Minneapolis Center
09:06PM 40.7056 -99.6156 276° West 398 458 32,000  Level Minneapolis Center
09:07PM 40.7183 -99.7706 276° West 415 478 32,000  Level Minneapolis Center
09:08PM 40.7319 -99.9261 277° West 423 487 32,000  Level Minneapolis Center
09:09PM 40.7447 -100.0797 276° West 423 487 32,000  Level Minneapolis Center
09:10PM 40.7589 -100.2642 276° West 422 486 32,000  Level Minneapolis Center
09:11PM 40.7697 -100.4161 275° West 419 482 32,000  Level Minneapolis Center
09:12PM 40.7814 -100.5675 276° West 417 480 32,000  Level Minneapolis Center
09:13PM 40.7658 -100.7694 264° West 436 502 32,000  Level Denver Center
09:14PM 40.7394 -100.9403 259° West 422 486 32,000  Level Denver Center
09:15PM 40.7153 -101.0844 258° West 419 482 32,000  Level Denver Center
09:16PM 40.6858 -101.2528 257° West 421 484 32,000  Level Denver Center
09:17PM 40.6608 -101.3969 257° West 423 487 32,000  Level Denver Center
09:18PM 40.6358 -101.5400 257° West 420 483 32,000  Level Denver Center
09:19PM 40.6053 -101.7067 256° West 418 481 32,000  Level Denver Center
09:20PM 40.5794 -101.8486 257° West 418 481 32,000  Level Denver Center
09:22PM 40.5489 -102.0144 256° West 417 480 32,000  Level Denver Center
09:23PM 40.5278 -102.1347 257° West 421 484 32,000  Level Denver Center
09:24PM 40.4917 -102.3233 256° West 419 482 32,000  Level Denver Center
09:25PM 40.4661 -102.4658 257° West 419 482 32,000  Level Denver Center
09:26PM 40.4358 -102.6319 257° West 420 483 32,000  Level Denver Center
09:27PM 40.4072 -102.7767 255° West 423 487 32,000  Level Denver Center
09:28PM 40.3806 -102.9256 257° West 422 486 32,000 -420 Level Denver Center
09:29PM 40.3528 -103.0722 256° West 417 480 31,200 -1,500 Descending Denver Center
09:30PM 40.3253 -103.2150 256° West 407 468 28,900 -2,280 Descending Denver Center
09:31PM 40.2975 -103.3569 256° West 405 466 26,600 -2,520 Descending Denver Center
09:32PM 40.2644 -103.5219 255° West 392 451 23,800 -2,340 Descending Denver Center
09:33PM 40.2389 -103.6517 256° West 374 430 21,900 -1,920 Descending Denver Center
09:34PM 40.2167 -103.7756 257° West 354 407 19,900 -1,860 Descending Denver Center
09:35PM 40.2025 -103.8908 261° West 306 352 18,100 -1,680 Descending Denver Center
09:36PM 40.2153 -104.0019 279° West 311 358 16,200 -1,620 Descending Denver Center
09:37PM 40.2242 -104.1092 276° West 298 343 14,500 -1,800 Descending Denver Center
09:38PM 40.2372 -104.2469 277° West 296 341 12,500 -1,680 Descending Denver Center
09:39PM 40.2183 -104.3464 256° West 281 323 11,000 -1,200 Descending Denver Center
09:40PM 40.1942 -104.4369 251° West 265 305 9,900 -900 Descending Denver Center
09:42PM 40.1683 -104.5422 252° West 235 270 9,000 -480 Descending Denver Center
09:43PM 40.1231 -104.5897 219° Southwest 217 250 9,000 -120 Level Denver Center
09:44PM 40.0728 -104.6297 211° Southwest 211 243 8,800 -240 Descending Denver Center